This is the latest recevied weather packets stored in our database for station/object DL4YM-13. If no packets are shown the sender has not sent any weather packets the latest 10 day(s).
| Time | Temp. | Humidity | Pressure | Rain* | Wind** | Luminosity | Snow |
|---|---|---|---|---|---|---|---|
| 1777985727 | 13.89° C | 82% | 993.5 hPa | - | - | - | - |
| 1777985126 | 15° C | 78% | 993.5 hPa | - | - | - | - |
| 1777984526 | 15° C | 78% | 993.5 hPa | - | - | - | - |
| 1777983927 | 15° C | 79% | 993.5 hPa | - | - | - | - |
| 1777983326 | 15.56° C | 76% | 993.6 hPa | - | - | - | - |
| 1777982726 | 16.11° C | 77% | 993.6 hPa | - | - | - | - |
| 1777982127 | 16.11° C | 78% | 993.6 hPa | - | - | - | - |
| 1777981527 | 15.56° C | 77% | 993.7 hPa | - | - | - | - |
| 1777980927 | 16.11° C | 77% | 993.7 hPa | - | - | - | - |
| 1777980327 | 16.11° C | 78% | 993.8 hPa | - | - | - | - |
| 1777979727 | 15.56° C | 80% | 993.9 hPa | - | - | - | - |
| 1777979126 | 15.56° C | 80% | 993.9 hPa | - | - | - | - |
| 1777978527 | 15° C | 82% | 994.1 hPa | - | - | - | - |
| 1777977927 | 15° C | 82% | 994.2 hPa | - | - | - | - |
| 1777977327 | 15° C | 82% | 994.2 hPa | - | - | - | - |
| 1777976727 | 15° C | 83% | 994.2 hPa | - | - | - | - |
| 1777976127 | 15° C | 85% | 994.2 hPa | - | - | - | - |
| 1777975526 | 13.89° C | 87% | 994.2 hPa | - | - | - | - |
| 1777974926 | 13.89° C | 90% | 994.4 hPa | - | - | - | - |
| 1777974327 | 13.89° C | 90% | 994.4 hPa | - | - | - | - |
| 1777973727 | 13.33° C | 92% | 994.4 hPa | - | - | - | - |
| 1777973127 | 12.78° C | 95% | 994.5 hPa | - | - | - | - |
| 1777972526 | 12.78° C | 95% | 994.5 hPa | - | - | - | - |
| 1777971927 | 12.78° C | 96% | 994.5 hPa | - | - | - | - |
| 1777971327 | 12.78° C | 96% | 994.6 hPa | - | - | - | - |
* Rain since midnight (hover to see other rain measurements)
** Current wind speed in m/s (hover to see current wind gust speed)